Time;durP1;ratioP1;P1;durP2;ratioP2;P2;SDS_P1;SDS_P2;PMS_P1;PMS_P2;Temp;Humidity;BMP_temperature;BMP_pressure;BME280_temperature;BME280_humidity;BME280_pressure;Samples;Min_cycle;Max_cycle;Signal;HPM_P1;HPM_P2
2022/12/01 00:00:28;;;;;;;21.53;17.37;;;;;;;4.58;100.00;100903.19;5064225;28;20214;-73
2022/12/01 00:02:53;;;;;;;18.67;16.67;;;;;;;4.56;100.00;100902.28;5052494;28;20273;-75
2022/12/01 00:05:19;;;;;;;20.23;17.47;;;;;;;4.60;100.00;100900.66;5064434;28;20196;-74
2022/12/01 00:07:47;;;;;;;19.27;17.27;;;;;;;4.61;100.00;100899.84;5064803;28;20190;-73
2022/12/01 00:10:24;;;;;;;18.30;15.17;;;;;;;4.55;100.00;100895.41;5062680;28;20196;-74
2022/12/01 00:13:00;;;;;;;17.20;14.50;;;;;;;4.50;100.00;100899.53;5062410;28;20209;-73
2022/12/01 00:15:29;;;;;;;16.37;14.37;;;;;;;4.49;100.00;100899.53;5045085;28;20205;-74
2022/12/01 00:17:54;;;;;;;15.17;12.43;;;;;;;4.46;100.00;100897.75;5063953;28;20208;-74
2022/12/01 00:20:20;;;;;;;15.17;12.60;;;;;;;4.42;100.00;100903.63;5064041;28;20653;-74
2022/12/01 00:22:47;;;;;;;13.07;11.67;;;;;;;4.42;100.00;100890.81;5057915;28;20245;-74
2022/12/01 00:25:14;;;;;;;12.70;10.97;;;;;;;4.44;100.00;100891.72;5067603;28;20187;-74
2022/12/01 00:27:40;;;;;;;9.27;8.33;;;;;;;4.40;100.00;100895.03;5071940;28;20218;-74
2022/12/01 00:30:08;;;;;;;9.60;8.40;;;;;;;4.38;100.00;100889.88;5064559;28;20230;-74
2022/12/01 00:32:34;;;;;;;8.53;7.73;;;;;;;4.38;100.00;100902.69;5055400;28;20178;-74
2022/12/01 00:34:59;;;;;;;8.33;7.53;;;;;;;4.41;100.00;100899.31;5044819;28;20272;-74
2022/12/01 00:37:25;;;;;;;9.17;8.27;;;;;;;4.39;100.00;100906.09;5046033;28;20188;-73
2022/12/01 00:39:50;;;;;;;9.93;8.93;;;;;;;4.40;100.00;100905.28;5055921;28;20286;-74
2022/12/01 00:42:15;;;;;;;10.37;9.27;;;;;;;4.39;100.00;100906.09;5045341;28;20192;-74
2022/12/01 00:44:41;;;;;;;10.30;9.27;;;;;;;4.39;100.00;100906.94;5044238;28;20261;-74
2022/12/01 00:47:06;;;;;;;10.27;9.27;;;;;;;4.44;100.00;100914.78;5064053;28;20247;-74
2022/12/01 00:49:31;;;;;;;9.90;8.90;;;;;;;4.41;100.00;100914.69;5057635;28;20184;-74
2022/12/01 00:51:58;;;;;;;10.77;9.67;;;;;;;4.41;99.90;100915.56;5060405;28;20664;-75
2022/12/01 00:54:23;;;;;;;10.63;9.53;;;;;;;4.39;100.00;100912.06;5044646;28;20205;-74
2022/12/01 00:56:49;;;;;;;11.20;10.10;;;;;;;4.38;100.00;100914.59;5059236;28;20921;-74
2022/12/01 00:59:15;;;;;;;10.33;9.33;;;;;;;4.37;100.00;100918.88;5049659;28;20209;-77
2022/12/01 01:01:40;;;;;;;11.27;10.10;;;;;;;4.38;100.00;100919.75;5050985;28;20524;-75
2022/12/01 01:04:05;;;;;;;10.73;9.70;;;;;;;4.38;100.00;100925.75;5062481;28;20182;-74
2022/12/01 01:06:31;;;;;;;10.30;9.30;;;;;;;4.40;100.00;100924.06;5082778;28;20182;-75
2022/12/01 01:08:57;;;;;;;10.60;9.50;;;;;;;4.39;100.00;100929.16;5061496;28;20183;-75
2022/12/01 01:11:22;;;;;;;10.40;9.37;;;;;;;4.40;99.92;100926.63;5060379;28;20211;-75
2022/12/01 01:13:48;;;;;;;9.63;8.73;;;;;;;4.36;100.00;100929.97;5077918;28;20174;-75
2022/12/01 01:16:19;;;;;;;9.30;8.40;;;;;;;4.38;100.00;100941.13;5085206;28;20187;-74
2022/12/01 01:18:45;;;;;;;9.63;8.70;;;;;;;4.38;98.08;100936.00;5061603;28;20210;-75
2022/12/01 01:21:14;;;;;;;10.90;9.90;;;;;;;4.38;97.61;100942.81;5058521;28;20214;-75
2022/12/01 01:23:39;;;;;;;11.80;10.60;;;;;;;4.37;97.29;100930.81;5062654;28;20546;-75
2022/12/01 01:26:15;;;;;;;10.90;9.80;;;;;;;4.36;97.13;100939.31;5059253;28;20239;-75
2022/12/01 01:28:40;;;;;;;11.60;10.50;;;;;;;4.36;97.93;100950.47;5056547;28;20686;-75
2022/12/01 01:31:11;;;;;;;11.30;10.10;;;;;;;4.32;97.63;100946.06;5058632;28;20238;-74
2022/12/01 01:33:36;;;;;;;11.53;10.43;;;;;;;4.32;97.27;100942.63;5060876;28;20268;-75
2022/12/01 01:36:03;;;;;;;12.07;10.87;;;;;;;4.29;97.51;100948.53;5062732;28;20687;-75
2022/12/01 01:38:28;;;;;;;13.30;11.97;;;;;;;4.29;97.56;100950.25;5061781;28;20213;-76
2022/12/01 01:40:54;;;;;;;12.20;11.00;;;;;;;4.26;97.76;100951.00;5061528;28;20789;-74
2022/12/01 01:43:49;;;;;;;12.07;10.87;;;;;;;4.25;97.67;100937.34;5060617;28;20549;-74
2022/12/01 01:46:22;;;;;;;12.43;11.13;;;;;;;4.29;98.47;100945.97;5060877;28;20181;-75
2022/12/01 01:49:00;;;;;;;12.80;11.50;;;;;;;4.27;98.47;100943.38;5053471;28;20182;-75
2022/12/01 01:51:32;;;;;;;12.40;11.13;;;;;;;4.28;98.89;100941.69;5063214;28;20218;-75
2022/12/01 01:54:05;;;;;;;13.27;11.87;;;;;;;4.27;98.75;100933.13;5063603;28;20272;-75
2022/12/01 01:56:31;;;;;;;12.63;11.40;;;;;;;4.24;98.05;100948.41;5067558;28;20311;-74
2022/12/01 01:58:58;;;;;;;12.37;11.17;;;;;;;4.21;97.07;100943.22;5069508;28;20186;-76
2022/12/01 02:01:23;;;;;;;13.80;12.40;;;;;;;4.20;97.33;100932.94;5067930;28;20545;-74
2022/12/01 02:03:51;;;;;;;12.73;11.47;;;;;;;4.21;97.86;100929.53;5069504;28;20190;-76
2022/12/01 02:06:16;;;;;;;14.13;12.73;;;;;;;4.18;98.01;100934.56;5065000;28;20188;-75
2022/12/01 02:08:41;;;;;;;12.13;10.90;;;;;;;4.18;97.68;100942.25;5074020;28;20191;-76
2022/12/01 02:11:22;;;;;;;12.60;11.33;;;;;;;4.14;97.18;100918.25;5054997;28;20250;-75
2022/12/01 02:14:03;;;;;;;14.80;13.00;;;;;;;4.14;97.59;100936.19;5066296;28;20188;-75
2022/12/01 02:16:43;;;;;;;14.30;12.80;;;;;;;4.16;98.07;100926.81;5063353;28;20190;-76
2022/12/01 02:19:23;;;;;;;13.47;12.13;;;;;;;4.16;98.02;100918.28;5065428;28;20194;-75
2022/12/01 02:22:20;;;;;;;13.30;12.00;;;;;;;4.11;97.91;100921.59;5066590;28;20202;-75
2022/12/01 02:25:10;;;;;;;13.50;12.20;;;;;;;4.10;98.97;100912.16;5062298;28;20183;-73
2022/12/01 02:27:54;;;;;;;15.03;13.53;;;;;;;4.08;100.00;100915.50;5066603;28;20182;-74
2022/12/01 02:30:28;;;;;;;13.93;12.53;;;;;;;4.04;100.00;100913.69;5082351;28;20655;-74
2022/12/01 02:33:05;;;;;;;14.80;13.27;;;;;;;4.09;100.00;100912.13;5061458;28;20654;-74
2022/12/01 02:35:41;;;;;;;14.70;13.20;;;;;;;4.03;99.64;100915.41;5060827;28;20188;-74
2022/12/01 02:38:17;;;;;;;14.57;13.00;;;;;;;4.01;99.82;100922.16;5064040;28;20174;-75
2022/12/01 02:40:45;;;;;;;15.73;14.13;;;;;;;4.00;100.00;100917.00;5074336;28;20312;-74
2022/12/01 02:43:29;;;;;;;15.43;13.93;;;;;;;3.96;99.54;100903.22;5061265;28;20582;-74
2022/12/01 02:46:28;;;;;;;14.90;13.40;;;;;;;3.96;99.88;100910.91;5063719;28;20185;-74
2022/12/01 02:48:58;;;;;;;15.27;13.70;;;;;;;3.95;100.00;100907.50;5060674;28;20187;-75
2022/12/01 02:51:29;;;;;;;15.13;13.57;;;;;;;3.96;100.00;100913.47;5041931;28;20278;-74
2022/12/01 02:53:57;;;;;;;17.37;15.57;;;;;;;4.01;100.00;100917.03;5057651;28;20228;-75
2022/12/01 02:56:23;;;;;;;15.13;13.53;;;;;;;3.96;100.00;100916.91;5079024;28;20186;-73
2022/12/01 02:58:49;;;;;;;15.23;13.73;;;;;;;4.00;99.70;100917.88;5048328;28;20205;-74
2022/12/01 03:01:44;;;;;;;16.33;14.63;;;;;;;4.02;100.00;100917.88;5062832;28;20950;-75
2022/12/01 03:04:19;;;;;;;16.83;15.13;;;;;;;4.01;98.92;100911.91;5065841;28;20196;-74
2022/12/01 03:07:03;;;;;;;18.10;16.20;;;;;;;3.98;99.87;100916.94;5064908;28;20186;-74
2022/12/01 03:09:53;;;;;;;16.87;15.17;;;;;;;3.97;100.00;100916.09;5063931;28;20670;-75
2022/12/01 03:12:34;;;;;;;17.23;15.43;;;;;;;3.96;100.00;100908.34;5045053;28;20321;-74
2022/12/01 03:15:13;;;;;;;20.37;18.20;;;;;;;3.97;100.00;100904.97;5073340;28;20232;-74
2022/12/01 03:17:53;;;;;;;20.27;18.07;;;;;;;3.97;100.00;100907.53;5060789;28;20194;-75
2022/12/01 03:20:38;;;;;;;21.17;18.00;;;;;;;3.93;100.00;100905.72;5055094;28;20296;-74
2022/12/01 03:23:09;;;;;;;20.03;17.93;;;;;;;3.89;100.00;100907.31;5057416;28;20178;-74
2022/12/01 03:25:38;;;;;;;19.07;16.10;;;;;;;3.83;100.00;100913.94;5063140;28;20237;-75
2022/12/01 03:28:06;;;;;;;18.47;16.57;;;;;;;3.78;100.00;100909.56;5059052;28;20177;-75
2022/12/01 03:30:35;;;;;;;20.40;17.70;;;;;;;3.75;100.00;100908.59;5073879;28;20607;-75
2022/12/01 03:33:09;;;;;;;18.23;16.33;;;;;;;3.68;100.00;100904.16;5064699;28;20181;-75
2022/12/01 03:35:46;;;;;;;18.13;16.23;;;;;;;3.60;100.00;100902.22;5049388;28;20759;-74
2022/12/01 03:38:19;;;;;;;18.17;16.23;;;;;;;3.57;100.00;100908.94;5067461;28;20915;-75
2022/12/01 03:40:48;;;;;;;18.70;16.67;;;;;;;3.49;100.00;100909.56;5044758;28;20275;-75
2022/12/01 03:43:20;;;;;;;17.70;15.90;;;;;;;3.45;100.00;100905.19;5056325;28;20676;-75
2022/12/01 03:46:14;;;;;;;17.97;15.87;;;;;;;3.40;100.00;100906.75;5064130;28;20534;-75
2022/12/01 03:48:40;;;;;;;18.07;15.90;;;;;;;3.35;100.00;100909.16;5062896;28;20195;-74
2022/12/01 03:51:38;;;;;;;18.03;16.10;;;;;;;3.30;100.00;100913.28;5060749;28;20214;-76
2022/12/01 03:54:16;;;;;;;19.03;16.53;;;;;;;3.25;100.00;100906.28;5059423;28;20206;-75
2022/12/01 03:56:48;;;;;;;18.97;16.00;;;;;;;3.24;100.00;100918.22;5083747;28;20335;-75
2022/12/01 03:59:17;;;;;;;19.27;16.53;;;;;;;3.25;100.00;100916.50;5059737;28;20242;-74
2022/12/01 04:01:44;;;;;;;18.50;16.33;;;;;;;3.22;100.00;100913.84;5064987;28;20718;-75
2022/12/01 04:04:11;;;;;;;18.13;16.10;;;;;;;3.21;100.00;100907.88;5062324;28;20667;-75
2022/12/01 04:06:39;;;;;;;20.43;16.93;;;;;;;3.19;100.00;100917.19;5064566;28;20689;-75
2022/12/01 04:09:04;;;;;;;17.50;15.57;;;;;;;3.15;100.00;100920.47;5063783;28;20206;-75
2022/12/01 04:14:13;;;;;;;19.40;16.87;;;;;;;3.16;100.00;100919.66;5053012;28;20671;-75
2022/12/01 04:16:39;;;;;;;20.40;18.17;;;;;;;3.10;100.00;100925.44;5066483;28;20190;-74
2022/12/01 04:19:04;;;;;;;19.57;17.40;;;;;;;3.11;100.00;100923.72;5060375;28;20721;-75
2022/12/01 04:21:30;;;;;;;17.87;15.93;;;;;;;3.03;100.00;100921.81;5061999;28;20756;-75
2022/12/01 04:24:01;;;;;;;18.93;16.77;;;;;;;2.97;100.00;100924.16;5060447;28;20694;-75
2022/12/01 04:26:35;;;;;;;18.17;16.27;;;;;;;2.91;100.00;100913.75;5061110;28;20646;-75
2022/12/01 04:29:02;;;;;;;20.17;17.40;;;;;;;2.89;100.00;100917.94;5067141;28;20189;-75
2022/12/01 04:31:28;;;;;;;21.17;17.53;;;;;;;2.88;100.00;100916.22;5068441;28;20767;-75
2022/12/01 04:33:55;;;;;;;20.00;17.90;;;;;;;2.95;100.00;100924.94;5064292;28;20194;-75
2022/12/01 04:36:21;;;;;;;19.73;17.63;;;;;;;2.97;100.00;100928.41;5047160;28;21866;-75
2022/12/01 04:38:46;;;;;;;19.50;17.40;;;;;;;3.03;100.00;100923.50;5063691;28;20196;-75
2022/12/01 04:41:13;;;;;;;19.77;17.63;;;;;;;3.08;100.00;100918.53;5048286;28;20217;-75
2022/12/01 04:43:38;;;;;;;21.63;19.27;;;;;;;3.08;100.00;100919.41;5061786;28;20197;-74
2022/12/01 04:46:05;;;;;;;21.57;19.30;;;;;;;3.14;100.00;100922.16;5065492;28;20178;-74
2022/12/01 04:48:30;;;;;;;20.67;18.47;;;;;;;3.17;100.00;100921.38;5066428;28;20186;-75
2022/12/01 04:50:56;;;;;;;21.53;19.23;;;;;;;3.20;100.00;100929.16;5069061;28;20323;-74
2022/12/01 04:53:21;;;;;;;22.13;19.53;;;;;;;3.24;100.00;100930.13;5051281;28;20273;-75
2022/12/01 04:55:47;;;;;;;19.97;17.87;;;;;;;3.25;100.00;100921.63;5047582;28;20575;-75
2022/12/01 04:58:12;;;;;;;21.43;18.50;;;;;;;3.25;100.00;100925.06;5063679;28;20209;-75
2022/12/01 05:00:37;;;;;;;21.83;19.53;;;;;;;3.30;100.00;100928.63;5043763;28;20244;-75
2022/12/01 05:03:03;;;;;;;21.40;18.97;;;;;;;3.33;100.00;100931.28;5046915;28;20290;-74
2022/12/01 05:05:29;;;;;;;21.10;18.80;;;;;;;3.34;100.00;100934.69;5048086;28;20236;-75
2022/12/01 05:07:57;;;;;;;20.43;18.27;;;;;;;3.35;100.00;100933.88;5064931;28;20182;-75
2022/12/01 05:10:22;;;;;;;21.57;19.27;;;;;;;3.33;100.00;100933.84;5048530;28;20206;-75
2022/12/01 05:12:48;;;;;;;20.40;18.23;;;;;;;3.35;100.00;100939.00;5081314;28;20549;-75
2022/12/01 05:15:14;;;;;;;22.77;18.27;;;;;;;3.37;100.00;100936.50;5070091;28;21138;-74
2022/12/01 05:17:39;;;;;;;21.63;18.97;;;;;;;3.37;100.00;100939.91;5067745;28;20535;-75
2022/12/01 05:22:51;;;;;;;21.20;18.87;;;;;;;3.38;100.00;100933.13;5063511;28;20668;-74
2022/12/01 05:25:17;;;;;;;21.77;18.90;;;;;;;3.38;100.00;100938.22;5066242;28;20189;-75
2022/12/01 05:27:42;;;;;;;22.33;19.00;;;;;;;3.40;100.00;100942.56;5061998;28;20198;-74
2022/12/01 05:30:08;;;;;;;21.60;18.77;;;;;;;3.39;100.00;100942.53;5062568;28;20227;-75
2022/12/01 05:32:33;;;;;;;22.33;19.30;;;;;;;3.38;100.00;100943.34;5064480;28;20181;-75
2022/12/01 05:34:58;;;;;;;22.40;20.00;;;;;;;3.39;100.00;100948.50;5046458;28;20239;-75
2022/12/01 05:37:24;;;;;;;22.83;19.67;;;;;;;3.36;100.00;100943.28;5053977;28;20228;-74
2022/12/01 05:39:49;;;;;;;21.67;19.20;;;;;;;3.33;100.00;100946.63;5070677;28;20260;-76
2022/12/01 05:42:14;;;;;;;22.77;19.53;;;;;;;3.37;100.00;100947.59;5055191;28;20193;-76
2022/12/01 05:44:39;;;;;;;21.80;19.57;;;;;;;3.39;100.00;100951.06;5060683;28;20195;-75
2022/12/01 05:47:05;;;;;;;23.60;20.47;;;;;;;3.38;100.00;100941.66;5057683;28;20192;-74
2022/12/01 05:49:30;;;;;;;21.87;19.27;;;;;;;3.38;100.00;100939.09;5053081;28;20265;-74
2022/12/01 05:51:58;;;;;;;24.23;20.83;;;;;;;3.41;100.00;100953.66;5047804;28;20201;-74
2022/12/01 05:54:24;;;;;;;22.53;19.43;;;;;;;3.40;100.00;100941.72;5078196;28;20243;-75
2022/12/01 05:56:49;;;;;;;22.83;19.90;;;;;;;3.38;100.00;100951.88;5062084;28;20198;-74
2022/12/01 05:59:14;;;;;;;21.67;19.33;;;;;;;3.43;100.00;100949.47;5044122;28;20188;-74
2022/12/01 06:01:40;;;;;;;22.93;20.47;;;;;;;3.43;100.00;100955.47;5090059;28;20303;-76
2022/12/01 06:04:05;;;;;;;20.50;18.30;;;;;;;3.41;100.00;100951.09;5079960;28;20214;-74
2022/12/01 06:06:30;;;;;;;22.60;19.73;;;;;;;3.41;100.00;100962.22;5068336;28;20193;-74
2022/12/01 06:08:56;;;;;;;21.70;19.47;;;;;;;3.40;100.00;100957.06;5068079;28;20536;-75
2022/12/01 06:11:21;;;;;;;23.37;20.37;;;;;;;3.41;100.00;100956.22;5068057;28;20214;-74
2022/12/01 06:13:46;;;;;;;24.57;20.63;;;;;;;3.40;100.00;100957.91;5062625;28;20220;-75
2022/12/01 06:16:12;;;;;;;20.97;18.73;;;;;;;3.38;100.00;100957.00;5063574;28;20201;-75
2022/12/01 06:18:37;;;;;;;22.20;19.73;;;;;;;3.42;100.00;100955.41;5063234;28;20220;-75
2022/12/01 06:21:04;;;;;;;23.77;20.83;;;;;;;3.40;100.00;100964.75;5059618;28;20282;-75
2022/12/01 06:23:30;;;;;;;24.13;20.23;;;;;;;3.40;100.00;100954.50;5065843;28;20265;-74
2022/12/01 06:25:55;;;;;;;20.97;18.67;;;;;;;3.38;100.00;100957.00;5076948;28;21408;-74
2022/12/01 06:28:21;;;;;;;20.67;18.10;;;;;;;3.36;100.00;100958.63;5059374;28;20719;-73
2022/12/01 06:30:46;;;;;;;22.23;19.87;;;;;;;3.34;100.00;100960.28;5060192;28;20218;-74
2022/12/01 06:33:11;;;;;;;23.57;20.67;;;;;;;3.34;100.00;100960.28;5040340;28;20194;-75
2022/12/01 06:35:37;;;;;;;21.97;19.57;;;;;;;3.33;100.00;100959.41;5060012;28;20196;-74
2022/12/01 06:38:03;;;;;;;20.93;18.73;;;;;;;3.37;100.00;100964.63;5064195;28;20197;-73
2022/12/01 06:40:28;;;;;;;23.23;20.33;;;;;;;3.37;100.00;100959.53;5066509;28;20241;-73
2022/12/01 06:42:57;;;;;;;20.53;18.33;;;;;;;3.37;100.00;100965.50;5046956;28;20669;-73
2022/12/01 06:45:22;;;;;;;21.70;19.23;;;;;;;3.42;100.00;100971.63;5059561;28;20676;-75
2022/12/01 06:47:52;;;;;;;21.97;18.77;;;;;;;3.38;100.00;100962.13;5071583;28;20185;-75
2022/12/01 06:50:17;;;;;;;22.47;19.17;;;;;;;3.39;100.00;100965.56;5059061;28;20209;-74
2022/12/01 06:52:43;;;;;;;21.40;19.10;;;;;;;3.41;100.00;100972.44;5060054;28;20185;-74
2022/12/01 06:55:08;;;;;;;21.20;18.90;;;;;;;3.41;100.00;100976.69;5049967;28;20218;-75
2022/12/01 06:57:33;;;;;;;21.97;19.17;;;;;;;3.42;100.00;100978.44;5076154;28;20197;-74
2022/12/01 06:59:59;;;;;;;19.67;17.43;;;;;;;3.40;100.00;100977.53;5078567;28;20217;-74
2022/12/01 07:02:24;;;;;;;20.20;18.07;;;;;;;3.40;100.00;100972.41;5069526;28;20237;-75
2022/12/01 07:04:49;;;;;;;20.63;17.70;;;;;;;3.38;100.00;100974.06;5076831;28;20182;-75
2022/12/01 07:07:15;;;;;;;19.90;17.80;;;;;;;3.43;100.00;100973.38;5072274;28;20353;-75
2022/12/01 07:09:40;;;;;;;20.23;18.03;;;;;;;3.45;100.00;100970.84;5075516;28;20306;-74
2022/12/01 07:12:06;;;;;;;20.30;18.20;;;;;;;3.45;100.00;100970.84;5047109;28;20683;-75
2022/12/01 07:14:31;;;;;;;19.30;17.17;;;;;;;3.50;100.00;100971.88;5058277;28;20189;-75
2022/12/01 07:16:57;;;;;;;19.60;17.53;;;;;;;3.50;100.00;100985.53;5083810;28;20179;-74
2022/12/01 07:19:23;;;;;;;19.93;17.87;;;;;;;3.50;100.00;100987.22;5070135;28;20182;-75
2022/12/01 07:21:49;;;;;;;20.03;17.87;;;;;;;3.51;100.00;100982.16;5073256;28;20220;-74
2022/12/01 07:24:14;;;;;;;21.43;18.20;;;;;;;3.50;100.00;100979.56;5053290;28;20228;-74
2022/12/01 07:26:40;;;;;;;19.83;16.97;;;;;;;3.49;100.00;100983.78;5074684;28;20957;-75
2022/12/01 07:29:06;;;;;;;19.03;17.03;;;;;;;3.51;100.00;100987.25;5058308;28;20677;-74
2022/12/01 07:31:31;;;;;;;19.23;17.23;;;;;;;3.53;100.00;100989.00;5040748;28;20638;-75
2022/12/01 07:33:57;;;;;;;19.27;17.20;;;;;;;3.54;100.00;100985.63;5044260;28;20186;-74
2022/12/01 07:36:22;;;;;;;18.17;16.27;;;;;;;3.56;100.00;100997.63;5046170;28;20182;-75
2022/12/01 07:38:47;;;;;;;17.83;15.93;;;;;;;3.56;100.00;100995.06;5066536;28;20270;-74
2022/12/01 07:41:15;;;;;;;18.27;15.87;;;;;;;3.58;100.00;101003.69;5053745;28;20217;-75
2022/12/01 07:43:41;;;;;;;18.27;16.37;;;;;;;3.59;100.00;101012.25;5069002;28;20186;-75
2022/12/01 07:46:09;;;;;;;19.03;17.00;;;;;;;3.59;100.00;101007.13;5063584;28;20193;-75
2022/12/01 07:48:36;;;;;;;19.07;16.50;;;;;;;3.60;100.00;101008.88;5083576;28;20193;-74
2022/12/01 07:51:03;;;;;;;19.83;16.17;;;;;;;3.60;100.00;101012.28;5071060;28;20201;-74
2022/12/01 07:53:29;;;;;;;18.40;16.50;;;;;;;3.60;100.00;101014.84;5073234;28;20319;-75
2022/12/01 07:55:54;;;;;;;17.67;15.77;;;;;;;3.63;100.00;101012.38;5058150;28;20692;-74
2022/12/01 07:58:20;;;;;;;19.97;17.17;;;;;;;3.66;100.00;101011.59;5070360;28;20284;-75
2022/12/01 08:00:45;;;;;;;19.20;17.20;;;;;;;3.67;100.00;101015.91;5072721;28;20220;-74
2022/12/01 08:03:10;;;;;;;19.10;17.10;;;;;;;3.69;100.00;101015.97;5077752;28;20268;-74
2022/12/01 08:05:36;;;;;;;17.57;15.77;;;;;;;3.71;100.00;101014.28;5072855;28;20221;-75
2022/12/01 08:08:02;;;;;;;19.03;16.60;;;;;;;3.74;100.00;101009.28;5078447;28;20624;-75
2022/12/01 08:10:27;;;;;;;19.53;17.43;;;;;;;3.76;100.00;101016.19;5076153;28;20217;-74
2022/12/01 08:12:52;;;;;;;17.47;15.67;;;;;;;3.78;100.00;101021.34;5078044;28;20186;-75
2022/12/01 08:15:17;;;;;;;17.87;15.97;;;;;;;3.81;100.00;101022.31;5074827;28;20200;-75
2022/12/01 08:17:43;;;;;;;17.97;16.07;;;;;;;3.85;100.00;101025.84;5065891;28;20271;-75
2022/12/01 08:20:08;;;;;;;19.70;16.77;;;;;;;3.82;100.00;101025.75;5045437;28;20741;-75
2022/12/01 08:22:34;;;;;;;18.67;16.77;;;;;;;3.80;100.00;101020.56;5059919;28;20195;-76
2022/12/01 08:24:59;;;;;;;18.03;16.30;;;;;;;3.81;100.00;101022.31;5075280;28;20201;-75
2022/12/01 08:27:24;;;;;;;19.67;17.13;;;;;;;3.76;100.00;101015.31;5058220;28;20213;-76
2022/12/01 08:29:49;;;;;;;17.73;15.77;;;;;;;3.75;100.00;101018.69;5055871;28;20665;-75
2022/12/01 08:32:16;;;;;;;18.80;16.43;;;;;;;3.75;100.00;101024.69;5056107;28;20647;-75
2022/12/01 08:34:42;;;;;;;18.00;16.10;;;;;;;3.77;100.00;101025.63;5055754;28;20218;-75
2022/12/01 08:37:07;;;;;;;17.57;15.67;;;;;;;3.81;100.00;101031.69;5075015;28;20186;-74
2022/12/01 08:39:32;;;;;;;18.00;16.20;;;;;;;3.83;100.00;101031.72;5058193;28;20694;-76
2022/12/01 08:41:58;;;;;;;17.83;16.03;;;;;;;3.84;100.00;101036.91;5057025;28;20280;-75
2022/12/01 08:44:23;;;;;;;18.07;16.03;;;;;;;3.83;100.00;101024.94;5043926;28;20194;-76
2022/12/01 08:46:49;;;;;;;18.80;16.43;;;;;;;3.83;100.00;101036.84;5055995;28;20189;-75
2022/12/01 08:49:14;;;;;;;17.50;15.73;;;;;;;3.80;100.00;101035.94;5054473;28;20186;-75
2022/12/01 08:51:39;;;;;;;17.23;15.50;;;;;;;3.81;100.00;101040.22;5059066;28;20262;-74
2022/12/01 08:54:05;;;;;;;19.27;17.27;;;;;;;3.83;100.00;101049.66;5054527;28;20189;-73
2022/12/01 08:56:36;;;;;;;17.37;15.50;;;;;;;3.80;100.00;101041.06;5041481;28;20194;-74
2022/12/01 08:59:02;;;;;;;18.07;15.93;;;;;;;3.79;100.00;101043.56;5054566;28;20225;-75
2022/12/01 09:01:28;;;;;;;18.47;16.00;;;;;;;3.80;100.00;101035.94;5038530;28;20206;-75
2022/12/01 09:04:07;;;;;;;16.87;15.17;;;;;;;3.81;100.00;101040.22;5043587;28;20194;-73
2022/12/01 09:06:43;;;;;;;17.00;15.20;;;;;;;3.84;100.00;101043.72;5075053;28;20285;-75
2022/12/01 09:09:12;;;;;;;18.87;16.80;;;;;;;3.86;100.00;101042.94;5054996;28;20300;-74
2022/12/01 09:11:38;;;;;;;20.03;17.90;;;;;;;3.86;100.00;101047.19;5055635;28;20216;-74
2022/12/01 09:14:03;;;;;;;18.30;16.40;;;;;;;3.86;100.00;101048.06;5042888;28;20186;-74
2022/12/01 09:16:28;;;;;;;16.70;14.60;;;;;;;3.88;100.00;101040.44;5059481;28;20201;-75
2022/12/01 09:18:54;;;;;;;17.50;15.63;;;;;;;3.87;100.00;101048.94;5063588;28;20200;-76
2022/12/01 09:21:23;;;;;;;17.37;15.57;;;;;;;3.88;100.00;101041.28;5080750;28;20221;-74
2022/12/01 09:23:48;;;;;;;18.20;16.27;;;;;;;3.92;100.00;101044.84;5067293;28;20194;-74
2022/12/01 09:26:17;;;;;;;17.03;15.23;;;;;;;3.94;100.00;101046.59;5059978;28;20177;-74
2022/12/01 09:28:43;;;;;;;16.87;15.17;;;;;;;3.96;100.00;101051.75;5063597;28;21038;-74
2022/12/01 09:31:10;;;;;;;18.90;16.90;;;;;;;3.97;100.00;101046.72;5076025;28;20293;-75
2022/12/01 09:33:36;;;;;;;16.50;14.90;;;;;;;4.01;100.00;101047.66;5041524;28;20986;-76
2022/12/01 09:36:04;;;;;;;17.53;15.73;;;;;;;4.02;100.00;101051.09;5062071;28;20181;-75
2022/12/01 09:38:31;;;;;;;17.30;14.87;;;;;;;4.01;100.00;101046.81;5064747;28;20193;-75
2022/12/01 09:41:01;;;;;;;16.37;14.77;;;;;;;4.01;100.00;101055.34;5044783;28;20247;-75
2022/12/01 09:43:31;;;;;;;15.33;13.73;;;;;;;4.04;100.00;101049.44;5059980;28;20187;-74
2022/12/01 09:46:01;;;;;;;16.50;14.80;;;;;;;4.04;100.00;101052.88;5058519;28;20242;-75
2022/12/01 09:48:41;;;;;;;18.50;15.13;;;;;;;4.02;100.00;101046.84;5056161;28;20221;-75
2022/12/01 09:51:18;;;;;;;17.20;15.37;;;;;;;4.03;100.00;101050.25;5058019;28;20288;-74
2022/12/01 09:53:45;;;;;;;17.60;15.70;;;;;;;4.06;100.00;101047.78;5044017;28;20181;-74
2022/12/01 09:56:44;;;;;;;18.40;16.07;;;;;;;4.02;100.00;101048.50;5060224;28;20191;-76
2022/12/01 09:59:17;;;;;;;17.23;15.43;;;;;;;3.98;100.00;101047.56;5060116;28;20207;-74
2022/12/01 10:01:45;;;;;;;16.17;14.47;;;;;;;3.97;100.00;101041.59;5062767;28;20214;-76
2022/12/01 10:04:23;;;;;;;17.30;15.07;;;;;;;4.00;100.00;101045.94;5060635;28;20194;-76
2022/12/01 10:07:02;;;;;;;19.10;15.30;;;;;;;4.03;100.00;101040.91;5059969;28;20246;-75
2022/12/01 10:09:37;;;;;;;16.40;14.70;;;;;;;4.05;100.00;101033.25;5075819;28;20595;-75
2022/12/01 10:12:15;;;;;;;16.83;15.00;;;;;;;4.05;100.00;101023.88;5049354;28;20651;-74
2022/12/01 10:14:44;;;;;;;17.40;15.33;;;;;;;4.05;100.00;101021.31;5064092;28;20219;-75
2022/12/01 10:17:38;;;;;;;19.20;15.97;;;;;;;4.06;100.00;101014.50;5080817;28;20325;-75
2022/12/01 10:20:21;;;;;;;16.23;14.63;;;;;;;4.09;100.00;101014.59;5058551;28;20275;-76
2022/12/01 10:23:05;;;;;;;17.47;15.53;;;;;;;4.17;100.00;101019.94;5051123;28;20549;-75
2022/12/01 10:25:42;;;;;;;17.27;15.43;;;;;;;4.17;100.00;101017.38;5046927;28;20514;-75
2022/12/01 10:28:41;;;;;;;18.10;15.43;;;;;;;4.10;100.00;101014.63;5066451;28;20304;-75
2022/12/01 10:31:19;;;;;;;17.60;15.27;;;;;;;4.14;100.00;101004.47;5049434;28;20289;-75
2022/12/01 10:33:59;;;;;;;17.07;15.33;;;;;;;4.13;100.00;101003.63;5068992;28;20187;-74
2022/12/01 10:36:26;;;;;;;16.00;14.30;;;;;;;4.17;100.00;100991.75;5050398;28;20196;-74
2022/12/01 10:38:51;;;;;;;17.60;15.80;;;;;;;4.20;100.00;100994.41;5066924;28;20200;-75
2022/12/01 10:41:18;;;;;;;17.53;15.67;;;;;;;4.21;100.00;100994.44;5067008;28;20209;-74
2022/12/01 10:43:47;;;;;;;17.53;15.73;;;;;;;4.23;100.00;101000.50;5048928;28;20302;-74
2022/12/01 10:46:24;;;;;;;18.33;15.60;;;;;;;4.21;100.00;100997.00;5064989;28;20194;-76
2022/12/01 10:48:58;;;;;;;15.90;14.30;;;;;;;4.20;100.00;100990.16;5048308;28;20186;-74
2022/12/01 10:51:25;;;;;;;18.10;16.20;;;;;;;4.22;100.00;100982.53;5066876;28;20209;-75
2022/12/01 10:53:58;;;;;;;17.17;15.37;;;;;;;4.24;100.00;100983.41;5066547;28;20189;-74
2022/12/01 10:56:23;;;;;;;17.37;15.60;;;;;;;4.25;100.00;100986.03;5065381;28;20195;-75
2022/12/01 10:58:48;;;;;;;16.53;14.37;;;;;;;4.29;100.00;100978.44;5066969;28;20183;-74
2022/12/01 11:01:17;;;;;;;17.53;15.73;;;;;;;4.34;100.00;100976.84;5064753;28;20701;-74
2022/12/01 11:03:42;;;;;;;18.17;15.80;;;;;;;4.38;100.00;100977.00;5061169;28;20203;-75
2022/12/01 11:06:09;;;;;;;16.93;15.23;;;;;;;4.41;100.00;100974.50;5066143;28;20186;-74
2022/12/01 11:08:37;;;;;;;18.87;16.10;;;;;;;4.43;100.00;100970.28;5063587;28;20186;-74
2022/12/01 11:11:03;;;;;;;17.27;15.47;;;;;;;4.46;100.00;100966.06;5079745;28;20205;-75
2022/12/01 11:13:33;;;;;;;17.30;15.60;;;;;;;4.48;100.00;100969.56;5082341;28;20187;-76
2022/12/01 11:16:02;;;;;;;16.20;14.50;;;;;;;4.53;100.00;100965.44;5047486;28;20186;-75
2022/12/01 11:18:33;;;;;;;16.43;14.83;;;;;;;4.56;100.00;100968.03;5046934;28;20217;-74
2022/12/01 11:21:15;;;;;;;17.33;15.27;;;;;;;4.56;100.00;100961.25;5046338;28;20217;-74
2022/12/01 11:23:47;;;;;;;17.87;16.07;;;;;;;4.50;100.00;100955.94;5064870;28;20218;-76
2022/12/01 11:26:26;;;;;;;15.83;14.23;;;;;;;4.58;100.00;100953.56;5063817;28;20724;-75